sensor_id;sensor_type;location;lat;lon;timestamp;P1;durP1;ratioP1;P2;durP2;ratioP2
78838;SDS011;68405;47.190;27.558;2024-01-15T00:01:05;12.70;;;6.50;;
78838;SDS011;68405;47.190;27.558;2024-01-15T00:03:56;12.90;;;6.70;;
78838;SDS011;68405;47.190;27.558;2024-01-15T00:06:28;17.90;;;8.60;;
78838;SDS011;68405;47.190;27.558;2024-01-15T00:09:01;13.40;;;7.20;;
78838;SDS011;68405;47.190;27.558;2024-01-15T00:11:34;14.30;;;7.70;;
78838;SDS011;68405;47.190;27.558;2024-01-15T00:14:06;16.60;;;7.50;;
78838;SDS011;68405;47.190;27.558;2024-01-15T00:16:37;12.00;;;7.50;;
78838;SDS011;68405;47.190;27.558;2024-01-15T00:19:11;16.40;;;7.30;;
78838;SDS011;68405;47.190;27.558;2024-01-15T00:21:42;16.50;;;7.70;;
78838;SDS011;68405;47.190;27.558;2024-01-15T00:24:14;12.70;;;7.30;;
78838;SDS011;68405;47.190;27.558;2024-01-15T00:26:45;15.90;;;9.20;;
78838;SDS011;68405;47.190;27.558;2024-01-15T00:29:17;17.50;;;8.30;;
78838;SDS011;68405;47.190;27.558;2024-01-15T00:31:52;13.70;;;7.30;;
78838;SDS011;68405;47.190;27.558;2024-01-15T00:34:24;13.90;;;7.30;;
78838;SDS011;68405;47.190;27.558;2024-01-15T00:36:55;12.00;;;6.90;;
78838;SDS011;68405;47.190;27.558;2024-01-15T00:39:26;9.10;;;6.00;;
78838;SDS011;68405;47.190;27.558;2024-01-15T00:41:59;13.80;;;7.00;;
78838;SDS011;68405;47.190;27.558;2024-01-15T00:44:37;10.10;;;5.80;;
78838;SDS011;68405;47.190;27.558;2024-01-15T00:47:08;12.60;;;7.00;;
78838;SDS011;68405;47.190;27.558;2024-01-15T00:49:40;11.20;;;6.20;;
78838;SDS011;68405;47.190;27.558;2024-01-15T00:52:11;15.60;;;7.20;;
78838;SDS011;68405;47.190;27.558;2024-01-15T00:54:43;11.70;;;6.80;;
78838;SDS011;68405;47.190;27.558;2024-01-15T00:57:15;11.10;;;5.70;;
78838;SDS011;68405;47.190;27.558;2024-01-15T00:59:47;13.50;;;6.70;;
78838;SDS011;68405;47.190;27.558;2024-01-15T01:02:18;12.20;;;6.30;;
78838;SDS011;68405;47.190;27.558;2024-01-15T01:04:50;9.00;;;5.90;;
78838;SDS011;68405;47.190;27.558;2024-01-15T01:07:21;12.40;;;6.90;;
78838;SDS011;68405;47.190;27.558;2024-01-15T01:09:53;13.00;;;5.90;;
78838;SDS011;68405;47.190;27.558;2024-01-15T01:12:24;10.80;;;6.70;;
78838;SDS011;68405;47.190;27.558;2024-01-15T01:14:56;12.00;;;6.20;;
78838;SDS011;68405;47.190;27.558;2024-01-15T01:17:28;10.70;;;5.90;;
78838;SDS011;68405;47.190;27.558;2024-01-15T01:19:59;11.40;;;5.90;;
78838;SDS011;68405;47.190;27.558;2024-01-15T01:22:32;11.40;;;6.30;;
78838;SDS011;68405;47.190;27.558;2024-01-15T01:25:04;11.30;;;6.20;;
78838;SDS011;68405;47.190;27.558;2024-01-15T01:27:37;12.40;;;5.90;;
78838;SDS011;68405;47.190;27.558;2024-01-15T01:30:08;11.50;;;5.40;;
78838;SDS011;68405;47.190;27.558;2024-01-15T01:32:40;8.60;;;5.20;;
78838;SDS011;68405;47.190;27.558;2024-01-15T01:35:12;7.60;;;4.20;;
78838;SDS011;68405;47.190;27.558;2024-01-15T01:37:43;7.80;;;4.40;;
78838;SDS011;68405;47.190;27.558;2024-01-15T01:40:15;8.20;;;4.30;;
78838;SDS011;68405;47.190;27.558;2024-01-15T01:42:46;6.90;;;3.90;;
78838;SDS011;68405;47.190;27.558;2024-01-15T01:45:18;7.20;;;4.40;;
78838;SDS011;68405;47.190;27.558;2024-01-15T01:47:49;6.70;;;4.30;;
78838;SDS011;68405;47.190;27.558;2024-01-15T01:50:21;8.10;;;4.60;;
78838;SDS011;68405;47.190;27.558;2024-01-15T01:52:53;8.20;;;4.10;;
78838;SDS011;68405;47.190;27.558;2024-01-15T01:55:25;9.90;;;5.10;;
78838;SDS011;68405;47.190;27.558;2024-01-15T01:57:59;8.80;;;4.90;;
78838;SDS011;68405;47.190;27.558;2024-01-15T02:00:31;7.00;;;3.70;;
78838;SDS011;68405;47.190;27.558;2024-01-15T02:03:04;8.10;;;5.00;;
78838;SDS011;68405;47.190;27.558;2024-01-15T02:05:36;9.20;;;5.00;;
78838;SDS011;68405;47.190;27.558;2024-01-15T02:08:09;7.50;;;5.00;;
78838;SDS011;68405;47.190;27.558;2024-01-15T02:10:40;8.10;;;4.90;;
78838;SDS011;68405;47.190;27.558;2024-01-15T02:13:12;9.50;;;6.00;;
78838;SDS011;68405;47.190;27.558;2024-01-15T02:16:20;11.60;;;6.10;;
78838;SDS011;68405;47.190;27.558;2024-01-15T02:25:47;8.20;;;4.90;;
78838;SDS011;68405;47.190;27.558;2024-01-15T02:28:19;7.90;;;5.10;;
78838;SDS011;68405;47.190;27.558;2024-01-15T02:30:50;8.20;;;4.10;;
78838;SDS011;68405;47.190;27.558;2024-01-15T02:33:22;10.60;;;5.20;;
78838;SDS011;68405;47.190;27.558;2024-01-15T02:35:53;8.30;;;4.20;;
78838;SDS011;68405;47.190;27.558;2024-01-15T02:38:25;10.80;;;4.60;;
78838;SDS011;68405;47.190;27.558;2024-01-15T02:40:56;9.10;;;4.90;;
78838;SDS011;68405;47.190;27.558;2024-01-15T02:43:28;8.10;;;4.30;;
78838;SDS011;68405;47.190;27.558;2024-01-15T02:45:59;7.80;;;4.30;;
78838;SDS011;68405;47.190;27.558;2024-01-15T02:48:31;7.40;;;4.30;;
78838;SDS011;68405;47.190;27.558;2024-01-15T02:51:03;8.80;;;4.90;;
78838;SDS011;68405;47.190;27.558;2024-01-15T02:53:35;8.90;;;4.60;;
78838;SDS011;68405;47.190;27.558;2024-01-15T02:56:08;8.20;;;4.20;;
78838;SDS011;68405;47.190;27.558;2024-01-15T02:58:39;11.50;;;6.00;;
78838;SDS011;68405;47.190;27.558;2024-01-15T03:01:11;10.80;;;4.70;;
78838;SDS011;68405;47.190;27.558;2024-01-15T03:03:42;9.80;;;5.20;;
78838;SDS011;68405;47.190;27.558;2024-01-15T03:06:14;7.50;;;4.70;;
78838;SDS011;68405;47.190;27.558;2024-01-15T03:08:45;9.50;;;5.40;;
78838;SDS011;68405;47.190;27.558;2024-01-15T03:11:17;9.40;;;4.80;;
78838;SDS011;68405;47.190;27.558;2024-01-15T03:13:48;9.40;;;5.40;;
78838;SDS011;68405;47.190;27.558;2024-01-15T03:16:20;8.80;;;4.60;;
78838;SDS011;68405;47.190;27.558;2024-01-15T03:18:51;9.60;;;4.70;;
78838;SDS011;68405;47.190;27.558;2024-01-15T03:21:23;9.50;;;5.10;;
78838;SDS011;68405;47.190;27.558;2024-01-15T03:23:54;7.00;;;4.80;;
78838;SDS011;68405;47.190;27.558;2024-01-15T03:26:26;10.90;;;5.20;;
78838;SDS011;68405;47.190;27.558;2024-01-15T03:28:57;7.20;;;4.10;;
78838;SDS011;68405;47.190;27.558;2024-01-15T03:31:29;10.70;;;4.90;;
78838;SDS011;68405;47.190;27.558;2024-01-15T03:34:01;13.40;;;6.70;;
78838;SDS011;68405;47.190;27.558;2024-01-15T03:36:32;10.80;;;5.10;;
78838;SDS011;68405;47.190;27.558;2024-01-15T03:39:03;11.80;;;6.10;;
78838;SDS011;68405;47.190;27.558;2024-01-15T03:41:35;10.60;;;5.30;;
78838;SDS011;68405;47.190;27.558;2024-01-15T03:44:07;14.70;;;7.20;;
78838;SDS011;68405;47.190;27.558;2024-01-15T03:46:38;15.40;;;8.30;;
78838;SDS011;68405;47.190;27.558;2024-01-15T03:49:10;13.20;;;7.20;;
78838;SDS011;68405;47.190;27.558;2024-01-15T03:51:42;9.90;;;5.90;;
78838;SDS011;68405;47.190;27.558;2024-01-15T03:54:14;15.80;;;7.70;;
78838;SDS011;68405;47.190;27.558;2024-01-15T03:56:45;11.20;;;6.30;;
78838;SDS011;68405;47.190;27.558;2024-01-15T03:59:16;12.00;;;5.90;;
78838;SDS011;68405;47.190;27.558;2024-01-15T04:01:51;10.10;;;6.40;;
78838;SDS011;68405;47.190;27.558;2024-01-15T04:04:22;13.20;;;6.20;;
78838;SDS011;68405;47.190;27.558;2024-01-15T04:06:54;11.00;;;6.40;;
78838;SDS011;68405;47.190;27.558;2024-01-15T04:09:25;12.20;;;6.50;;
78838;SDS011;68405;47.190;27.558;2024-01-15T04:11:57;10.70;;;6.60;;
78838;SDS011;68405;47.190;27.558;2024-01-15T04:14:29;11.60;;;6.60;;
78838;SDS011;68405;47.190;27.558;2024-01-15T04:17:00;17.20;;;9.60;;
78838;SDS011;68405;47.190;27.558;2024-01-15T04:19:32;16.10;;;8.60;;
78838;SDS011;68405;47.190;27.558;2024-01-15T04:22:03;13.40;;;7.40;;
78838;SDS011;68405;47.190;27.558;2024-01-15T04:24:35;14.80;;;7.90;;
78838;SDS011;68405;47.190;27.558;2024-01-15T04:27:06;11.30;;;6.50;;
78838;SDS011;68405;47.190;27.558;2024-01-15T04:29:38;11.80;;;6.50;;
78838;SDS011;68405;47.190;27.558;2024-01-15T04:32:12;14.30;;;8.40;;
78838;SDS011;68405;47.190;27.558;2024-01-15T04:34:44;12.70;;;6.40;;
78838;SDS011;68405;47.190;27.558;2024-01-15T04:37:16;12.10;;;7.00;;
78838;SDS011;68405;47.190;27.558;2024-01-15T04:39:48;13.30;;;8.50;;
78838;SDS011;68405;47.190;27.558;2024-01-15T04:42:21;13.80;;;7.10;;
78838;SDS011;68405;47.190;27.558;2024-01-15T04:44:52;12.80;;;7.60;;
78838;SDS011;68405;47.190;27.558;2024-01-15T04:47:25;20.20;;;8.00;;
78838;SDS011;68405;47.190;27.558;2024-01-15T04:49:56;12.40;;;6.50;;
78838;SDS011;68405;47.190;27.558;2024-01-15T04:52:28;15.60;;;8.10;;
78838;SDS011;68405;47.190;27.558;2024-01-15T04:54:59;10.70;;;5.10;;
78838;SDS011;68405;47.190;27.558;2024-01-15T04:57:31;15.60;;;7.40;;
78838;SDS011;68405;47.190;27.558;2024-01-15T05:00:02;13.80;;;7.40;;
78838;SDS011;68405;47.190;27.558;2024-01-15T05:02:35;12.50;;;7.60;;
78838;SDS011;68405;47.190;27.558;2024-01-15T05:05:06;11.40;;;6.80;;
78838;SDS011;68405;47.190;27.558;2024-01-15T05:07:38;15.60;;;6.50;;
78838;SDS011;68405;47.190;27.558;2024-01-15T05:10:09;13.80;;;7.70;;
78838;SDS011;68405;47.190;27.558;2024-01-15T05:12:41;14.80;;;7.30;;
78838;SDS011;68405;47.190;27.558;2024-01-15T05:15:12;17.60;;;7.90;;
78838;SDS011;68405;47.190;27.558;2024-01-15T05:17:47;13.40;;;7.40;;
78838;SDS011;68405;47.190;27.558;2024-01-15T05:20:25;16.00;;;7.60;;
78838;SDS011;68405;47.190;27.558;2024-01-15T05:22:56;12.90;;;7.50;;
78838;SDS011;68405;47.190;27.558;2024-01-15T05:25:55;14.70;;;7.40;;
78838;SDS011;68405;47.190;27.558;2024-01-15T05:28:32;13.90;;;7.30;;
78838;SDS011;68405;47.190;27.558;2024-01-15T05:31:31;13.20;;;6.20;;
78838;SDS011;68405;47.190;27.558;2024-01-15T05:41:25;11.90;;;5.60;;
78838;SDS011;68405;47.190;27.558;2024-01-15T05:44:30;13.00;;;6.60;;
78838;SDS011;68405;47.190;27.558;2024-01-15T05:47:07;12.60;;;7.10;;
78838;SDS011;68405;47.190;27.558;2024-01-15T05:49:52;15.20;;;7.40;;
78838;SDS011;68405;47.190;27.558;2024-01-15T05:58:47;12.80;;;6.30;;
78838;SDS011;68405;47.190;27.558;2024-01-15T06:01:46;11.90;;;6.50;;
78838;SDS011;68405;47.190;27.558;2024-01-15T06:04:29;12.60;;;6.80;;
78838;SDS011;68405;47.190;27.558;2024-01-15T06:07:07;11.70;;;5.90;;
78838;SDS011;68405;47.190;27.558;2024-01-15T06:09:48;15.40;;;7.70;;
78838;SDS011;68405;47.190;27.558;2024-01-15T06:12:51;12.80;;;6.70;;
78838;SDS011;68405;47.190;27.558;2024-01-15T06:15:47;12.40;;;6.80;;
78838;SDS011;68405;47.190;27.558;2024-01-15T06:21:14;11.30;;;6.80;;
78838;SDS011;68405;47.190;27.558;2024-01-15T06:23:57;10.40;;;6.40;;
78838;SDS011;68405;47.190;27.558;2024-01-15T06:44:37;13.30;;;7.40;;
78838;SDS011;68405;47.190;27.558;2024-01-15T06:47:08;14.10;;;8.10;;
78838;SDS011;68405;47.190;27.558;2024-01-15T06:49:43;15.20;;;8.90;;
78838;SDS011;68405;47.190;27.558;2024-01-15T06:52:19;14.30;;;8.40;;
78838;SDS011;68405;47.190;27.558;2024-01-15T06:54:53;17.50;;;9.70;;
78838;SDS011;68405;47.190;27.558;2024-01-15T06:57:24;15.80;;;10.10;;
78838;SDS011;68405;47.190;27.558;2024-01-15T06:59:57;15.40;;;9.70;;
78838;SDS011;68405;47.190;27.558;2024-01-15T07:02:31;15.60;;;9.30;;
78838;SDS011;68405;47.190;27.558;2024-01-15T07:05:03;14.50;;;9.90;;
78838;SDS011;68405;47.190;27.558;2024-01-15T07:07:35;14.20;;;8.60;;
78838;SDS011;68405;47.190;27.558;2024-01-15T07:31:36;16.20;;;9.00;;
78838;SDS011;68405;47.190;27.558;2024-01-15T07:34:11;14.80;;;8.50;;
78838;SDS011;68405;47.190;27.558;2024-01-15T07:49:12;13.80;;;7.60;;
78838;SDS011;68405;47.190;27.558;2024-01-15T07:51:56;17.30;;;9.40;;
78838;SDS011;68405;47.190;27.558;2024-01-15T07:54:33;17.00;;;9.90;;
78838;SDS011;68405;47.190;27.558;2024-01-15T07:57:12;18.40;;;9.60;;
78838;SDS011;68405;47.190;27.558;2024-01-15T08:00:03;16.50;;;9.40;;
78838;SDS011;68405;47.190;27.558;2024-01-15T08:02:37;17.70;;;10.10;;
78838;SDS011;68405;47.190;27.558;2024-01-15T08:05:08;19.00;;;11.70;;
78838;SDS011;68405;47.190;27.558;2024-01-15T08:07:40;18.60;;;10.40;;
78838;SDS011;68405;47.190;27.558;2024-01-15T08:10:11;16.30;;;10.00;;
78838;SDS011;68405;47.190;27.558;2024-01-15T08:12:45;17.20;;;9.60;;
78838;SDS011;68405;47.190;27.558;2024-01-15T08:15:17;16.80;;;10.20;;
78838;SDS011;68405;47.190;27.558;2024-01-15T08:17:49;14.50;;;8.00;;
78838;SDS011;68405;47.190;27.558;2024-01-15T08:20:20;13.80;;;8.30;;
78838;SDS011;68405;47.190;27.558;2024-01-15T08:22:52;14.60;;;8.90;;
78838;SDS011;68405;47.190;27.558;2024-01-15T08:25:28;15.70;;;9.60;;
78838;SDS011;68405;47.190;27.558;2024-01-15T08:28:00;15.30;;;8.80;;
78838;SDS011;68405;47.190;27.558;2024-01-15T08:30:31;17.40;;;9.40;;
78838;SDS011;68405;47.190;27.558;2024-01-15T08:33:04;16.70;;;8.70;;
78838;SDS011;68405;47.190;27.558;2024-01-15T08:35:35;14.80;;;9.40;;
78838;SDS011;68405;47.190;27.558;2024-01-15T08:38:07;16.60;;;10.30;;
78838;SDS011;68405;47.190;27.558;2024-01-15T08:40:38;14.60;;;9.50;;
78838;SDS011;68405;47.190;27.558;2024-01-15T08:43:09;17.70;;;10.30;;
78838;SDS011;68405;47.190;27.558;2024-01-15T08:45:41;16.00;;;9.40;;
78838;SDS011;68405;47.190;27.558;2024-01-15T08:48:13;18.20;;;10.30;;
78838;SDS011;68405;47.190;27.558;2024-01-15T08:50:45;16.20;;;10.10;;
78838;SDS011;68405;47.190;27.558;2024-01-15T08:53:17;19.00;;;10.30;;
78838;SDS011;68405;47.190;27.558;2024-01-15T08:56:00;18.20;;;10.40;;
78838;SDS011;68405;47.190;27.558;2024-01-15T08:58:37;16.00;;;9.90;;
78838;SDS011;68405;47.190;27.558;2024-01-15T09:01:09;17.00;;;10.90;;
78838;SDS011;68405;47.190;27.558;2024-01-15T09:03:49;16.30;;;10.40;;
78838;SDS011;68405;47.190;27.558;2024-01-15T09:06:21;15.20;;;10.30;;
78838;SDS011;68405;47.190;27.558;2024-01-15T09:09:36;15.90;;;9.30;;
78838;SDS011;68405;47.190;27.558;2024-01-15T09:15:20;15.80;;;10.70;;
78838;SDS011;68405;47.190;27.558;2024-01-15T09:21:30;15.30;;;9.60;;
78838;SDS011;68405;47.190;27.558;2024-01-15T09:24:07;11.60;;;8.10;;
78838;SDS011;68405;47.190;27.558;2024-01-15T09:26:45;13.70;;;8.30;;
78838;SDS011;68405;47.190;27.558;2024-01-15T09:29:23;13.20;;;8.60;;
78838;SDS011;68405;47.190;27.558;2024-01-15T09:32:16;14.90;;;9.40;;
78838;SDS011;68405;47.190;27.558;2024-01-15T09:35:05;14.40;;;8.30;;
78838;SDS011;68405;47.190;27.558;2024-01-15T09:40:45;15.20;;;8.90;;
78838;SDS011;68405;47.190;27.558;2024-01-15T09:43:28;11.10;;;7.20;;
78838;SDS011;68405;47.190;27.558;2024-01-15T09:52:13;12.80;;;7.30;;
78838;SDS011;68405;47.190;27.558;2024-01-15T09:54:49;13.00;;;8.20;;
78838;SDS011;68405;47.190;27.558;2024-01-15T09:57:34;10.90;;;7.40;;
78838;SDS011;68405;47.190;27.558;2024-01-15T10:00:45;16.00;;;8.40;;
78838;SDS011;68405;47.190;27.558;2024-01-15T10:03:25;13.00;;;8.80;;
78838;SDS011;68405;47.190;27.558;2024-01-15T10:06:31;12.80;;;7.80;;
78838;SDS011;68405;47.190;27.558;2024-01-15T10:09:18;12.30;;;8.20;;
78838;SDS011;68405;47.190;27.558;2024-01-15T10:12:23;11.80;;;8.00;;
78838;SDS011;68405;47.190;27.558;2024-01-15T10:15:08;15.70;;;9.50;;
78838;SDS011;68405;47.190;27.558;2024-01-15T10:23:43;13.70;;;9.30;;
78838;SDS011;68405;47.190;27.558;2024-01-15T10:26:18;15.20;;;9.30;;
78838;SDS011;68405;47.190;27.558;2024-01-15T10:28:54;15.10;;;9.20;;
78838;SDS011;68405;47.190;27.558;2024-01-15T10:31:28;14.50;;;9.10;;
78838;SDS011;68405;47.190;27.558;2024-01-15T10:34:13;14.30;;;8.80;;
78838;SDS011;68405;47.190;27.558;2024-01-15T10:36:53;15.20;;;8.40;;
78838;SDS011;68405;47.190;27.558;2024-01-15T10:39:37;16.60;;;9.80;;
78838;SDS011;68405;47.190;27.558;2024-01-15T10:48:09;16.60;;;9.20;;
78838;SDS011;68405;47.190;27.558;2024-01-15T10:50:43;15.00;;;8.80;;
78838;SDS011;68405;47.190;27.558;2024-01-15T10:53:17;16.00;;;8.60;;
78838;SDS011;68405;47.190;27.558;2024-01-15T10:58:48;13.10;;;8.70;;
78838;SDS011;68405;47.190;27.558;2024-01-15T11:01:25;12.50;;;8.50;;
78838;SDS011;68405;47.190;27.558;2024-01-15T11:07:19;12.30;;;8.90;;
78838;SDS011;68405;47.190;27.558;2024-01-15T11:09:58;13.60;;;8.80;;
78838;SDS011;68405;47.190;27.558;2024-01-15T11:13:07;14.10;;;8.00;;
78838;SDS011;68405;47.190;27.558;2024-01-15T11:15:59;13.70;;;8.30;;
78838;SDS011;68405;47.190;27.558;2024-01-15T11:21:24;12.70;;;8.30;;
78838;SDS011;68405;47.190;27.558;2024-01-15T11:23:58;11.90;;;8.50;;
78838;SDS011;68405;47.190;27.558;2024-01-15T11:26:37;18.50;;;8.50;;
78838;SDS011;68405;47.190;27.558;2024-01-15T11:32:04;13.30;;;8.60;;
78838;SDS011;68405;47.190;27.558;2024-01-15T11:35:03;11.70;;;8.10;;
78838;SDS011;68405;47.190;27.558;2024-01-15T11:37:57;14.50;;;8.70;;
78838;SDS011;68405;47.190;27.558;2024-01-15T11:40:40;14.60;;;7.20;;
78838;SDS011;68405;47.190;27.558;2024-01-15T11:43:15;14.60;;;7.80;;
78838;SDS011;68405;47.190;27.558;2024-01-15T11:45:49;10.80;;;7.20;;
78838;SDS011;68405;47.190;27.558;2024-01-15T11:48:24;14.10;;;7.10;;
78838;SDS011;68405;47.190;27.558;2024-01-15T11:51:12;13.20;;;8.30;;
78838;SDS011;68405;47.190;27.558;2024-01-15T11:53:47;15.30;;;6.90;;
78838;SDS011;68405;47.190;27.558;2024-01-15T11:56:22;12.10;;;6.40;;
78838;SDS011;68405;47.190;27.558;2024-01-15T11:58:55;17.10;;;8.30;;
78838;SDS011;68405;47.190;27.558;2024-01-15T12:01:26;10.30;;;7.10;;
78838;SDS011;68405;47.190;27.558;2024-01-15T12:03:57;11.90;;;6.80;;
78838;SDS011;68405;47.190;27.558;2024-01-15T12:06:29;12.90;;;6.80;;
78838;SDS011;68405;47.190;27.558;2024-01-15T12:09:08;13.00;;;7.90;;
78838;SDS011;68405;47.190;27.558;2024-01-15T12:11:40;10.80;;;7.00;;
78838;SDS011;68405;47.190;27.558;2024-01-15T12:14:20;13.10;;;8.30;;
78838;SDS011;68405;47.190;27.558;2024-01-15T12:16:54;12.20;;;7.10;;
78838;SDS011;68405;47.190;27.558;2024-01-15T12:19:26;13.40;;;7.70;;
78838;SDS011;68405;47.190;27.558;2024-01-15T12:21:57;11.40;;;6.80;;
78838;SDS011;68405;47.190;27.558;2024-01-15T12:24:31;10.60;;;6.30;;
78838;SDS011;68405;47.190;27.558;2024-01-15T12:27:03;12.70;;;7.20;;
78838;SDS011;68405;47.190;27.558;2024-01-15T12:29:35;11.60;;;6.80;;
78838;SDS011;68405;47.190;27.558;2024-01-15T12:32:07;11.80;;;7.10;;
78838;SDS011;68405;47.190;27.558;2024-01-15T12:34:38;12.40;;;7.30;;
78838;SDS011;68405;47.190;27.558;2024-01-15T12:37:10;11.80;;;6.40;;
78838;SDS011;68405;47.190;27.558;2024-01-15T12:39:44;10.60;;;6.40;;
78838;SDS011;68405;47.190;27.558;2024-01-15T12:42:21;11.80;;;6.90;;
78838;SDS011;68405;47.190;27.558;2024-01-15T12:44:54;13.40;;;6.60;;
78838;SDS011;68405;47.190;27.558;2024-01-15T12:47:27;16.90;;;8.00;;
78838;SDS011;68405;47.190;27.558;2024-01-15T13:16:33;10.50;;;6.00;;
78838;SDS011;68405;47.190;27.558;2024-01-15T13:28:13;9.60;;;6.30;;
78838;SDS011;68405;47.190;27.558;2024-01-15T13:30:45;9.50;;;6.30;;
78838;SDS011;68405;47.190;27.558;2024-01-15T13:33:16;11.70;;;6.00;;
78838;SDS011;68405;47.190;27.558;2024-01-15T13:35:48;11.60;;;5.80;;
78838;SDS011;68405;47.190;27.558;2024-01-15T13:38:20;8.50;;;5.80;;
78838;SDS011;68405;47.190;27.558;2024-01-15T13:40:52;12.90;;;7.80;;
78838;SDS011;68405;47.190;27.558;2024-01-15T13:43:25;13.60;;;8.00;;
78838;SDS011;68405;47.190;27.558;2024-01-15T13:45:57;12.00;;;7.00;;
78838;SDS011;68405;47.190;27.558;2024-01-15T13:51:04;10.20;;;5.90;;
78838;SDS011;68405;47.190;27.558;2024-01-15T13:53:44;12.50;;;6.50;;
78838;SDS011;68405;47.190;27.558;2024-01-15T13:56:18;9.00;;;5.60;;
78838;SDS011;68405;47.190;27.558;2024-01-15T13:58:50;11.40;;;6.50;;
78838;SDS011;68405;47.190;27.558;2024-01-15T14:01:22;12.00;;;6.30;;
78838;SDS011;68405;47.190;27.558;2024-01-15T14:03:54;10.00;;;6.30;;
78838;SDS011;68405;47.190;27.558;2024-01-15T14:06:26;12.00;;;6.10;;
78838;SDS011;68405;47.190;27.558;2024-01-15T14:08:59;9.30;;;5.00;;
78838;SDS011;68405;47.190;27.558;2024-01-15T14:11:32;11.10;;;6.30;;
78838;SDS011;68405;47.190;27.558;2024-01-15T14:14:04;11.50;;;7.30;;
78838;SDS011;68405;47.190;27.558;2024-01-15T14:16:35;10.10;;;5.90;;
78838;SDS011;68405;47.190;27.558;2024-01-15T14:19:07;10.70;;;6.70;;
78838;SDS011;68405;47.190;27.558;2024-01-15T14:21:38;11.30;;;6.70;;
78838;SDS011;68405;47.190;27.558;2024-01-15T14:24:10;11.30;;;6.00;;
78838;SDS011;68405;47.190;27.558;2024-01-15T14:26:46;12.60;;;7.40;;
78838;SDS011;68405;47.190;27.558;2024-01-15T14:29:18;22.20;;;10.10;;
78838;SDS011;68405;47.190;27.558;2024-01-15T14:31:53;14.60;;;8.30;;
78838;SDS011;68405;47.190;27.558;2024-01-15T14:37:19;11.80;;;7.10;;
78838;SDS011;68405;47.190;27.558;2024-01-15T14:39:51;13.10;;;6.80;;
78838;SDS011;68405;47.190;27.558;2024-01-15T14:42:23;10.20;;;5.90;;
78838;SDS011;68405;47.190;27.558;2024-01-15T14:44:56;10.10;;;5.90;;
78838;SDS011;68405;47.190;27.558;2024-01-15T14:47:30;11.40;;;7.00;;
78838;SDS011;68405;47.190;27.558;2024-01-15T14:50:04;10.00;;;6.30;;
78838;SDS011;68405;47.190;27.558;2024-01-15T14:52:38;13.10;;;7.80;;
78838;SDS011;68405;47.190;27.558;2024-01-15T14:55:14;14.10;;;7.20;;
78838;SDS011;68405;47.190;27.558;2024-01-15T14:57:46;13.20;;;8.10;;
78838;SDS011;68405;47.190;27.558;2024-01-15T15:00:21;11.80;;;7.70;;
78838;SDS011;68405;47.190;27.558;2024-01-15T15:03:01;14.90;;;8.70;;
78838;SDS011;68405;47.190;27.558;2024-01-15T15:05:43;11.00;;;7.20;;
78838;SDS011;68405;47.190;27.558;2024-01-15T15:08:20;14.60;;;7.40;;
78838;SDS011;68405;47.190;27.558;2024-01-15T15:10:53;12.00;;;7.20;;
78838;SDS011;68405;47.190;27.558;2024-01-15T15:13:27;12.80;;;7.60;;
78838;SDS011;68405;47.190;27.558;2024-01-15T15:16:00;14.60;;;7.50;;
78838;SDS011;68405;47.190;27.558;2024-01-15T15:18:37;14.20;;;7.70;;
78838;SDS011;68405;47.190;27.558;2024-01-15T15:21:11;10.20;;;5.90;;
78838;SDS011;68405;47.190;27.558;2024-01-15T15:23:43;12.10;;;7.30;;
78838;SDS011;68405;47.190;27.558;2024-01-15T15:26:16;11.50;;;7.20;;
78838;SDS011;68405;47.190;27.558;2024-01-15T15:34:31;17.40;;;8.40;;
78838;SDS011;68405;47.190;27.558;2024-01-15T15:37:04;15.60;;;9.60;;
78838;SDS011;68405;47.190;27.558;2024-01-15T15:39:36;17.60;;;9.30;;
78838;SDS011;68405;47.190;27.558;2024-01-15T15:42:09;17.30;;;9.40;;
78838;SDS011;68405;47.190;27.558;2024-01-15T15:44:42;12.00;;;6.90;;
78838;SDS011;68405;47.190;27.558;2024-01-15T15:47:17;13.40;;;7.90;;
78838;SDS011;68405;47.190;27.558;2024-01-15T15:49:48;16.60;;;9.30;;
78838;SDS011;68405;47.190;27.558;2024-01-15T15:52:20;15.20;;;8.80;;
78838;SDS011;68405;47.190;27.558;2024-01-15T15:54:51;16.70;;;9.20;;
78838;SDS011;68405;47.190;27.558;2024-01-15T15:57:23;14.40;;;8.00;;
78838;SDS011;68405;47.190;27.558;2024-01-15T15:59:56;14.30;;;8.40;;
78838;SDS011;68405;47.190;27.558;2024-01-15T16:02:30;11.30;;;6.70;;
78838;SDS011;68405;47.190;27.558;2024-01-15T16:05:02;14.90;;;8.70;;
78838;SDS011;68405;47.190;27.558;2024-01-15T16:07:40;17.70;;;10.20;;
78838;SDS011;68405;47.190;27.558;2024-01-15T16:10:12;15.80;;;9.00;;
78838;SDS011;68405;47.190;27.558;2024-01-15T16:12:50;18.00;;;9.90;;
78838;SDS011;68405;47.190;27.558;2024-01-15T16:15:22;16.30;;;8.10;;
78838;SDS011;68405;47.190;27.558;2024-01-15T16:17:58;15.40;;;9.20;;
78838;SDS011;68405;47.190;27.558;2024-01-15T16:20:29;13.10;;;7.30;;
78838;SDS011;68405;47.190;27.558;2024-01-15T16:23:01;14.00;;;8.70;;
78838;SDS011;68405;47.190;27.558;2024-01-15T16:25:33;15.60;;;8.10;;
78838;SDS011;68405;47.190;27.558;2024-01-15T16:28:06;12.70;;;7.00;;
78838;SDS011;68405;47.190;27.558;2024-01-15T16:30:38;18.90;;;11.20;;
78838;SDS011;68405;47.190;27.558;2024-01-15T16:33:12;16.20;;;8.70;;
78838;SDS011;68405;47.190;27.558;2024-01-15T16:35:43;17.20;;;9.80;;
78838;SDS011;68405;47.190;27.558;2024-01-15T16:38:16;12.50;;;8.00;;
78838;SDS011;68405;47.190;27.558;2024-01-15T16:40:48;18.40;;;10.30;;
78838;SDS011;68405;47.190;27.558;2024-01-15T16:43:21;17.60;;;10.00;;
78838;SDS011;68405;47.190;27.558;2024-01-15T16:45:57;13.00;;;6.50;;
78838;SDS011;68405;47.190;27.558;2024-01-15T16:48:28;15.60;;;8.90;;
78838;SDS011;68405;47.190;27.558;2024-01-15T16:51:00;10.70;;;6.80;;
78838;SDS011;68405;47.190;27.558;2024-01-15T16:53:32;16.10;;;9.30;;
78838;SDS011;68405;47.190;27.558;2024-01-15T16:56:13;16.70;;;8.90;;
78838;SDS011;68405;47.190;27.558;2024-01-15T16:58:49;12.70;;;8.20;;
78838;SDS011;68405;47.190;27.558;2024-01-15T17:01:30;12.50;;;8.00;;
78838;SDS011;68405;47.190;27.558;2024-01-15T17:04:03;17.40;;;8.70;;
78838;SDS011;68405;47.190;27.558;2024-01-15T17:06:40;16.80;;;9.20;;
78838;SDS011;68405;47.190;27.558;2024-01-15T17:09:14;18.00;;;9.50;;
78838;SDS011;68405;47.190;27.558;2024-01-15T17:11:49;17.20;;;10.20;;
78838;SDS011;68405;47.190;27.558;2024-01-15T17:14:24;16.80;;;8.80;;
78838;SDS011;68405;47.190;27.558;2024-01-15T17:17:02;16.40;;;8.90;;
78838;SDS011;68405;47.190;27.558;2024-01-15T17:19:38;14.80;;;8.30;;
78838;SDS011;68405;47.190;27.558;2024-01-15T17:22:11;16.80;;;10.10;;
78838;SDS011;68405;47.190;27.558;2024-01-15T17:24:46;16.50;;;8.20;;
78838;SDS011;68405;47.190;27.558;2024-01-15T17:27:26;15.60;;;9.50;;
78838;SDS011;68405;47.190;27.558;2024-01-15T17:30:04;14.40;;;8.40;;
78838;SDS011;68405;47.190;27.558;2024-01-15T17:32:49;15.50;;;10.10;;
78838;SDS011;68405;47.190;27.558;2024-01-15T17:35:23;15.50;;;10.30;;
78838;SDS011;68405;47.190;27.558;2024-01-15T17:41:40;15.70;;;8.50;;
78838;SDS011;68405;47.190;27.558;2024-01-15T17:44:15;13.50;;;9.10;;
78838;SDS011;68405;47.190;27.558;2024-01-15T17:46:49;14.40;;;7.60;;
78838;SDS011;68405;47.190;27.558;2024-01-15T17:52:04;15.50;;;9.20;;
78838;SDS011;68405;47.190;27.558;2024-01-15T17:54:42;17.80;;;8.90;;
78838;SDS011;68405;47.190;27.558;2024-01-15T18:00:13;16.30;;;9.70;;